sensor_id;sensor_type;location;lat;lon;timestamp;P1;durP1;ratioP1;P2;durP2;ratioP2
73397;SDS011;63606;52.328;20.964;2022-11-15T00:00:53;22.30;;;10.43;;
73397;SDS011;63606;52.328;20.964;2022-11-15T00:03:22;22.98;;;10.10;;
73397;SDS011;63606;52.328;20.964;2022-11-15T00:05:49;23.65;;;10.93;;
73397;SDS011;63606;52.328;20.964;2022-11-15T00:08:15;21.23;;;10.35;;
73397;SDS011;63606;52.328;20.964;2022-11-15T00:10:41;20.73;;;9.75;;
73397;SDS011;63606;52.328;20.964;2022-11-15T00:13:08;20.90;;;10.48;;
73397;SDS011;63606;52.328;20.964;2022-11-15T00:15:35;20.23;;;10.27;;
73397;SDS011;63606;52.328;20.964;2022-11-15T00:18:02;24.67;;;10.70;;
73397;SDS011;63606;52.328;20.964;2022-11-15T00:20:28;22.42;;;11.20;;
73397;SDS011;63606;52.328;20.964;2022-11-15T00:22:54;23.02;;;10.85;;
73397;SDS011;63606;52.328;20.964;2022-11-15T00:25:20;22.40;;;10.65;;
73397;SDS011;63606;52.328;20.964;2022-11-15T00:27:46;24.52;;;11.70;;
73397;SDS011;63606;52.328;20.964;2022-11-15T00:30:11;22.48;;;10.88;;
73397;SDS011;63606;52.328;20.964;2022-11-15T00:32:37;24.80;;;11.18;;
73397;SDS011;63606;52.328;20.964;2022-11-15T00:35:03;25.40;;;11.88;;
73397;SDS011;63606;52.328;20.964;2022-11-15T00:37:29;22.13;;;11.38;;
73397;SDS011;63606;52.328;20.964;2022-11-15T00:39:54;23.38;;;10.93;;
73397;SDS011;63606;52.328;20.964;2022-11-15T00:42:20;24.63;;;10.63;;
73397;SDS011;63606;52.328;20.964;2022-11-15T00:44:45;25.17;;;10.90;;
73397;SDS011;63606;52.328;20.964;2022-11-15T00:47:11;23.02;;;10.40;;
73397;SDS011;63606;52.328;20.964;2022-11-15T00:49:36;25.42;;;11.57;;
73397;SDS011;63606;52.328;20.964;2022-11-15T00:52:02;25.40;;;10.65;;
73397;SDS011;63606;52.328;20.964;2022-11-15T00:54:28;25.55;;;11.05;;
73397;SDS011;63606;52.328;20.964;2022-11-15T00:56:53;25.05;;;11.73;;
73397;SDS011;63606;52.328;20.964;2022-11-15T00:59:19;24.10;;;12.35;;
73397;SDS011;63606;52.328;20.964;2022-11-15T01:01:44;25.50;;;11.65;;
73397;SDS011;63606;52.328;20.964;2022-11-15T01:04:10;29.63;;;11.95;;
73397;SDS011;63606;52.328;20.964;2022-11-15T01:06:35;27.35;;;11.82;;
73397;SDS011;63606;52.328;20.964;2022-11-15T01:09:01;28.33;;;12.07;;
73397;SDS011;63606;52.328;20.964;2022-11-15T01:11:26;24.75;;;12.00;;
73397;SDS011;63606;52.328;20.964;2022-11-15T01:13:52;28.20;;;12.50;;
73397;SDS011;63606;52.328;20.964;2022-11-15T01:16:18;28.40;;;11.60;;
73397;SDS011;63606;52.328;20.964;2022-11-15T01:18:44;29.50;;;11.93;;
73397;SDS011;63606;52.328;20.964;2022-11-15T01:21:12;29.20;;;12.90;;
73397;SDS011;63606;52.328;20.964;2022-11-15T01:26:06;26.17;;;11.57;;
73397;SDS011;63606;52.328;20.964;2022-11-15T01:28:35;29.60;;;12.82;;
73397;SDS011;63606;52.328;20.964;2022-11-15T01:31:03;27.30;;;12.02;;
73397;SDS011;63606;52.328;20.964;2022-11-15T01:33:33;29.15;;;12.23;;
73397;SDS011;63606;52.328;20.964;2022-11-15T01:36:03;32.47;;;13.20;;
73397;SDS011;63606;52.328;20.964;2022-11-15T01:38:30;30.17;;;12.73;;
73397;SDS011;63606;52.328;20.964;2022-11-15T01:40:55;33.08;;;11.63;;
73397;SDS011;63606;52.328;20.964;2022-11-15T01:46:16;30.88;;;13.73;;
73397;SDS011;63606;52.328;20.964;2022-11-15T01:49:00;34.88;;;14.70;;
73397;SDS011;63606;52.328;20.964;2022-11-15T01:51:31;32.33;;;13.02;;
73397;SDS011;63606;52.328;20.964;2022-11-15T01:54:02;28.92;;;13.02;;
73397;SDS011;63606;52.328;20.964;2022-11-15T01:56:33;31.92;;;12.63;;
73397;SDS011;63606;52.328;20.964;2022-11-15T01:59:04;36.25;;;14.02;;
73397;SDS011;63606;52.328;20.964;2022-11-15T02:01:32;30.75;;;13.77;;
73397;SDS011;63606;52.328;20.964;2022-11-15T02:03:59;30.92;;;12.82;;
73397;SDS011;63606;52.328;20.964;2022-11-15T02:06:29;34.03;;;14.55;;
73397;SDS011;63606;52.328;20.964;2022-11-15T02:08:56;35.90;;;13.93;;
73397;SDS011;63606;52.328;20.964;2022-11-15T02:11:22;33.78;;;13.75;;
73397;SDS011;63606;52.328;20.964;2022-11-15T02:13:47;35.65;;;13.73;;
73397;SDS011;63606;52.328;20.964;2022-11-15T02:16:28;34.47;;;13.77;;
73397;SDS011;63606;52.328;20.964;2022-11-15T02:30:03;36.97;;;14.48;;
73397;SDS011;63606;52.328;20.964;2022-11-15T02:35:55;36.65;;;13.30;;
73397;SDS011;63606;52.328;20.964;2022-11-15T02:38:29;37.97;;;13.68;;
73397;SDS011;63606;52.328;20.964;2022-11-15T02:41:03;42.38;;;17.05;;
73397;SDS011;63606;52.328;20.964;2022-11-15T02:49:09;39.08;;;15.10;;
73397;SDS011;63606;52.328;20.964;2022-11-15T02:51:36;35.67;;;13.05;;
73397;SDS011;63606;52.328;20.964;2022-11-15T02:54:03;33.70;;;13.73;;
73397;SDS011;63606;52.328;20.964;2022-11-15T02:56:28;38.05;;;14.43;;
73397;SDS011;63606;52.328;20.964;2022-11-15T02:59:04;37.33;;;14.95;;
73397;SDS011;63606;52.328;20.964;2022-11-15T03:07:25;36.25;;;15.32;;
73397;SDS011;63606;52.328;20.964;2022-11-15T03:12:56;36.28;;;14.90;;
73397;SDS011;63606;52.328;20.964;2022-11-15T03:15:51;38.75;;;14.27;;
73397;SDS011;63606;52.328;20.964;2022-11-15T03:18:28;34.83;;;13.73;;
73397;SDS011;63606;52.328;20.964;2022-11-15T03:20:59;40.90;;;15.15;;
73397;SDS011;63606;52.328;20.964;2022-11-15T03:23:29;37.10;;;15.27;;
73397;SDS011;63606;52.328;20.964;2022-11-15T03:25:56;36.75;;;15.07;;
73397;SDS011;63606;52.328;20.964;2022-11-15T03:31:32;36.97;;;14.23;;
73397;SDS011;63606;52.328;20.964;2022-11-15T03:37:00;40.70;;;15.60;;
73397;SDS011;63606;52.328;20.964;2022-11-15T03:39:26;42.22;;;15.43;;
73397;SDS011;63606;52.328;20.964;2022-11-15T03:50:07;42.13;;;15.70;;
73397;SDS011;63606;52.328;20.964;2022-11-15T03:52:38;44.83;;;15.27;;
73397;SDS011;63606;52.328;20.964;2022-11-15T03:55:07;41.47;;;15.52;;
73397;SDS011;63606;52.328;20.964;2022-11-15T03:57:36;45.28;;;17.40;;
73397;SDS011;63606;52.328;20.964;2022-11-15T04:00:02;41.65;;;16.30;;
73397;SDS011;63606;52.328;20.964;2022-11-15T04:02:29;41.47;;;16.65;;
73397;SDS011;63606;52.328;20.964;2022-11-15T04:04:54;44.45;;;16.98;;
73397;SDS011;63606;52.328;20.964;2022-11-15T04:07:20;43.63;;;16.10;;
73397;SDS011;63606;52.328;20.964;2022-11-15T04:09:45;46.60;;;16.95;;
73397;SDS011;63606;52.328;20.964;2022-11-15T04:12:34;41.30;;;16.10;;
73397;SDS011;63606;52.328;20.964;2022-11-15T04:15:11;43.55;;;15.82;;
73397;SDS011;63606;52.328;20.964;2022-11-15T04:17:39;46.30;;;17.55;;
73397;SDS011;63606;52.328;20.964;2022-11-15T04:20:16;40.88;;;15.70;;
73397;SDS011;63606;52.328;20.964;2022-11-15T04:23:06;44.45;;;17.40;;
73397;SDS011;63606;52.328;20.964;2022-11-15T04:25:54;45.35;;;15.77;;
73397;SDS011;63606;52.328;20.964;2022-11-15T04:28:20;43.40;;;16.50;;
73397;SDS011;63606;52.328;20.964;2022-11-15T04:30:46;49.80;;;17.52;;
73397;SDS011;63606;52.328;20.964;2022-11-15T04:33:12;47.92;;;16.10;;
73397;SDS011;63606;52.328;20.964;2022-11-15T04:35:37;44.85;;;16.35;;
73397;SDS011;63606;52.328;20.964;2022-11-15T04:38:04;44.10;;;16.83;;
73397;SDS011;63606;52.328;20.964;2022-11-15T04:40:31;47.15;;;16.90;;
73397;SDS011;63606;52.328;20.964;2022-11-15T04:42:56;48.33;;;18.02;;
73397;SDS011;63606;52.328;20.964;2022-11-15T04:45:22;48.42;;;17.67;;
73397;SDS011;63606;52.328;20.964;2022-11-15T04:47:48;46.45;;;16.42;;
73397;SDS011;63606;52.328;20.964;2022-11-15T04:50:15;47.40;;;17.73;;
73397;SDS011;63606;52.328;20.964;2022-11-15T04:52:50;41.13;;;15.25;;
73397;SDS011;63606;52.328;20.964;2022-11-15T04:55:16;43.08;;;17.08;;
73397;SDS011;63606;52.328;20.964;2022-11-15T04:57:42;43.45;;;15.55;;
73397;SDS011;63606;52.328;20.964;2022-11-15T05:00:09;46.95;;;17.25;;
73397;SDS011;63606;52.328;20.964;2022-11-15T05:02:37;42.92;;;14.95;;
73397;SDS011;63606;52.328;20.964;2022-11-15T05:05:21;42.35;;;15.73;;
73397;SDS011;63606;52.328;20.964;2022-11-15T05:07:46;46.10;;;15.75;;
73397;SDS011;63606;52.328;20.964;2022-11-15T05:10:12;44.38;;;16.10;;
73397;SDS011;63606;52.328;20.964;2022-11-15T05:12:37;44.58;;;17.10;;
73397;SDS011;63606;52.328;20.964;2022-11-15T05:15:03;45.25;;;16.40;;
73397;SDS011;63606;52.328;20.964;2022-11-15T05:17:29;45.20;;;15.57;;
73397;SDS011;63606;52.328;20.964;2022-11-15T05:19:54;43.90;;;16.38;;
73397;SDS011;63606;52.328;20.964;2022-11-15T05:22:20;38.97;;;16.10;;
73397;SDS011;63606;52.328;20.964;2022-11-15T05:24:46;44.80;;;17.13;;
73397;SDS011;63606;52.328;20.964;2022-11-15T05:27:11;49.38;;;15.77;;
73397;SDS011;63606;52.328;20.964;2022-11-15T05:29:37;46.35;;;16.67;;
73397;SDS011;63606;52.328;20.964;2022-11-15T05:32:03;50.38;;;16.65;;
73397;SDS011;63606;52.328;20.964;2022-11-15T05:34:31;47.88;;;16.67;;
73397;SDS011;63606;52.328;20.964;2022-11-15T05:36:57;48.83;;;16.00;;
73397;SDS011;63606;52.328;20.964;2022-11-15T05:39:23;48.75;;;15.98;;
73397;SDS011;63606;52.328;20.964;2022-11-15T05:41:52;46.13;;;16.48;;
73397;SDS011;63606;52.328;20.964;2022-11-15T05:44:24;47.95;;;18.75;;
73397;SDS011;63606;52.328;20.964;2022-11-15T05:46:51;45.45;;;16.40;;
73397;SDS011;63606;52.328;20.964;2022-11-15T05:49:21;45.20;;;15.52;;
73397;SDS011;63606;52.328;20.964;2022-11-15T05:51:50;40.45;;;15.93;;
73397;SDS011;63606;52.328;20.964;2022-11-15T05:54:17;37.97;;;16.10;;
73397;SDS011;63606;52.328;20.964;2022-11-15T05:56:44;41.85;;;15.45;;
73397;SDS011;63606;52.328;20.964;2022-11-15T05:59:10;42.08;;;15.48;;
73397;SDS011;63606;52.328;20.964;2022-11-15T06:01:36;40.35;;;14.60;;
73397;SDS011;63606;52.328;20.964;2022-11-15T06:04:03;40.53;;;16.00;;
73397;SDS011;63606;52.328;20.964;2022-11-15T06:06:29;43.40;;;15.43;;
73397;SDS011;63606;52.328;20.964;2022-11-15T06:08:54;42.88;;;15.48;;
73397;SDS011;63606;52.328;20.964;2022-11-15T06:11:20;45.15;;;15.75;;
73397;SDS011;63606;52.328;20.964;2022-11-15T06:13:45;40.78;;;14.57;;
73397;SDS011;63606;52.328;20.964;2022-11-15T06:16:11;44.22;;;15.65;;
73397;SDS011;63606;52.328;20.964;2022-11-15T06:18:37;40.10;;;14.30;;
73397;SDS011;63606;52.328;20.964;2022-11-15T06:21:03;46.00;;;17.77;;
73397;SDS011;63606;52.328;20.964;2022-11-15T06:23:31;38.30;;;14.98;;
73397;SDS011;63606;52.328;20.964;2022-11-15T06:25:58;42.53;;;15.13;;
73397;SDS011;63606;52.328;20.964;2022-11-15T06:28:24;45.92;;;15.80;;
73397;SDS011;63606;52.328;20.964;2022-11-15T06:30:52;42.63;;;14.68;;
73397;SDS011;63606;52.328;20.964;2022-11-15T06:33:18;46.35;;;15.82;;
73397;SDS011;63606;52.328;20.964;2022-11-15T06:35:44;45.40;;;14.32;;
73397;SDS011;63606;52.328;20.964;2022-11-15T06:38:10;39.53;;;13.85;;
73397;SDS011;63606;52.328;20.964;2022-11-15T06:40:36;45.53;;;14.95;;
73397;SDS011;63606;52.328;20.964;2022-11-15T06:43:03;41.88;;;13.43;;
73397;SDS011;63606;52.328;20.964;2022-11-15T06:45:30;42.17;;;13.88;;
73397;SDS011;63606;52.328;20.964;2022-11-15T06:47:56;38.40;;;13.55;;
73397;SDS011;63606;52.328;20.964;2022-11-15T06:50:22;41.45;;;14.48;;
73397;SDS011;63606;52.328;20.964;2022-11-15T06:52:48;34.65;;;14.00;;
73397;SDS011;63606;52.328;20.964;2022-11-15T06:55:14;40.20;;;13.48;;
73397;SDS011;63606;52.328;20.964;2022-11-15T06:57:46;42.03;;;13.18;;
73397;SDS011;63606;52.328;20.964;2022-11-15T07:00:13;37.15;;;14.75;;
73397;SDS011;63606;52.328;20.964;2022-11-15T07:02:39;38.80;;;12.93;;
73397;SDS011;63606;52.328;20.964;2022-11-15T07:05:05;34.05;;;12.20;;
73397;SDS011;63606;52.328;20.964;2022-11-15T07:07:31;40.20;;;13.70;;
73397;SDS011;63606;52.328;20.964;2022-11-15T07:09:56;41.47;;;14.07;;
73397;SDS011;63606;52.328;20.964;2022-11-15T07:12:22;40.65;;;13.00;;
73397;SDS011;63606;52.328;20.964;2022-11-15T07:14:47;41.17;;;13.65;;
73397;SDS011;63606;52.328;20.964;2022-11-15T07:17:13;43.88;;;14.73;;
73397;SDS011;63606;52.328;20.964;2022-11-15T07:19:38;39.63;;;13.48;;
73397;SDS011;63606;52.328;20.964;2022-11-15T07:22:04;40.60;;;14.35;;
73397;SDS011;63606;52.328;20.964;2022-11-15T07:24:30;40.90;;;13.93;;
73397;SDS011;63606;52.328;20.964;2022-11-15T07:26:55;44.28;;;15.52;;
73397;SDS011;63606;52.328;20.964;2022-11-15T07:29:21;42.22;;;14.45;;
73397;SDS011;63606;52.328;20.964;2022-11-15T07:31:46;44.30;;;14.52;;
73397;SDS011;63606;52.328;20.964;2022-11-15T07:34:12;39.40;;;13.25;;
73397;SDS011;63606;52.328;20.964;2022-11-15T07:36:37;40.75;;;13.65;;
73397;SDS011;63606;52.328;20.964;2022-11-15T07:39:03;40.58;;;13.90;;
73397;SDS011;63606;52.328;20.964;2022-11-15T07:41:28;40.63;;;13.43;;
73397;SDS011;63606;52.328;20.964;2022-11-15T07:43:54;36.33;;;14.32;;
73397;SDS011;63606;52.328;20.964;2022-11-15T07:46:20;38.10;;;13.27;;
73397;SDS011;63606;52.328;20.964;2022-11-15T07:48:45;35.85;;;13.48;;
73397;SDS011;63606;52.328;20.964;2022-11-15T07:51:14;33.55;;;13.48;;
73397;SDS011;63606;52.328;20.964;2022-11-15T07:53:41;33.35;;;12.57;;
73397;SDS011;63606;52.328;20.964;2022-11-15T07:56:08;37.97;;;12.82;;
73397;SDS011;63606;52.328;20.964;2022-11-15T07:58:34;35.80;;;12.80;;
73397;SDS011;63606;52.328;20.964;2022-11-15T08:01:07;35.13;;;12.88;;
73397;SDS011;63606;52.328;20.964;2022-11-15T08:03:33;33.30;;;13.18;;
73397;SDS011;63606;52.328;20.964;2022-11-15T08:06:00;32.22;;;11.43;;
73397;SDS011;63606;52.328;20.964;2022-11-15T08:08:26;32.92;;;11.88;;
73397;SDS011;63606;52.328;20.964;2022-11-15T08:10:51;29.80;;;10.60;;
73397;SDS011;63606;52.328;20.964;2022-11-15T08:13:17;33.20;;;12.60;;
73397;SDS011;63606;52.328;20.964;2022-11-15T08:15:43;38.15;;;13.98;;
73397;SDS011;63606;52.328;20.964;2022-11-15T08:18:10;33.80;;;11.45;;
73397;SDS011;63606;52.328;20.964;2022-11-15T08:20:37;32.47;;;12.40;;
73397;SDS011;63606;52.328;20.964;2022-11-15T08:23:04;36.92;;;12.75;;
73397;SDS011;63606;52.328;20.964;2022-11-15T08:25:31;34.78;;;12.85;;
73397;SDS011;63606;52.328;20.964;2022-11-15T08:27:58;34.95;;;12.32;;
73397;SDS011;63606;52.328;20.964;2022-11-15T08:30:26;39.05;;;13.30;;
73397;SDS011;63606;52.328;20.964;2022-11-15T08:32:52;40.00;;;14.85;;
73397;SDS011;63606;52.328;20.964;2022-11-15T08:35:19;30.33;;;12.82;;
73397;SDS011;63606;52.328;20.964;2022-11-15T08:37:46;31.15;;;12.30;;
73397;SDS011;63606;52.328;20.964;2022-11-15T08:40:12;35.55;;;14.07;;
73397;SDS011;63606;52.328;20.964;2022-11-15T08:42:39;34.00;;;13.35;;
73397;SDS011;63606;52.328;20.964;2022-11-15T08:45:05;34.88;;;13.20;;
73397;SDS011;63606;52.328;20.964;2022-11-15T08:47:32;41.75;;;14.00;;
73397;SDS011;63606;52.328;20.964;2022-11-15T08:49:58;38.38;;;14.07;;
73397;SDS011;63606;52.328;20.964;2022-11-15T08:52:23;38.17;;;12.98;;
73397;SDS011;63606;52.328;20.964;2022-11-15T08:54:49;33.90;;;13.43;;
73397;SDS011;63606;52.328;20.964;2022-11-15T08:57:14;37.60;;;12.82;;
73397;SDS011;63606;52.328;20.964;2022-11-15T08:59:40;35.35;;;13.95;;
73397;SDS011;63606;52.328;20.964;2022-11-15T09:02:06;30.15;;;12.80;;
73397;SDS011;63606;52.328;20.964;2022-11-15T09:04:31;32.75;;;12.95;;
73397;SDS011;63606;52.328;20.964;2022-11-15T09:06:57;34.53;;;12.93;;
73397;SDS011;63606;52.328;20.964;2022-11-15T09:09:22;32.22;;;13.07;;
73397;SDS011;63606;52.328;20.964;2022-11-15T09:11:48;30.88;;;11.95;;
73397;SDS011;63606;52.328;20.964;2022-11-15T09:14:15;34.65;;;13.02;;
73397;SDS011;63606;52.328;20.964;2022-11-15T09:16:41;31.65;;;12.70;;
73397;SDS011;63606;52.328;20.964;2022-11-15T09:19:06;35.90;;;13.13;;
73397;SDS011;63606;52.328;20.964;2022-11-15T09:21:32;31.83;;;12.70;;
73397;SDS011;63606;52.328;20.964;2022-11-15T09:23:58;37.90;;;13.60;;
73397;SDS011;63606;52.328;20.964;2022-11-15T09:26:24;38.40;;;14.48;;
73397;SDS011;63606;52.328;20.964;2022-11-15T09:28:49;40.85;;;13.52;;
73397;SDS011;63606;52.328;20.964;2022-11-15T09:31:15;36.10;;;14.27;;
73397;SDS011;63606;52.328;20.964;2022-11-15T09:33:42;35.15;;;13.48;;
73397;SDS011;63606;52.328;20.964;2022-11-15T09:36:09;40.88;;;13.10;;
73397;SDS011;63606;52.328;20.964;2022-11-15T09:38:35;35.33;;;13.20;;
73397;SDS011;63606;52.328;20.964;2022-11-15T09:48:53;32.13;;;12.70;;
73397;SDS011;63606;52.328;20.964;2022-11-15T09:51:36;31.58;;;13.75;;
73397;SDS011;63606;52.328;20.964;2022-11-15T10:05:32;41.10;;;14.07;;
73397;SDS011;63606;52.328;20.964;2022-11-15T10:11:00;38.85;;;14.20;;
73397;SDS011;63606;52.328;20.964;2022-11-15T10:13:30;36.88;;;14.85;;
73397;SDS011;63606;52.328;20.964;2022-11-15T10:24:11;34.75;;;14.73;;
73397;SDS011;63606;52.328;20.964;2022-11-15T10:26:38;34.63;;;15.82;;
73397;SDS011;63606;52.328;20.964;2022-11-15T10:29:04;38.88;;;15.63;;
73397;SDS011;63606;52.328;20.964;2022-11-15T10:31:30;35.25;;;14.02;;
73397;SDS011;63606;52.328;20.964;2022-11-15T10:34:03;45.50;;;16.15;;
73397;SDS011;63606;52.328;20.964;2022-11-15T10:36:37;42.83;;;15.07;;
73397;SDS011;63606;52.328;20.964;2022-11-15T10:39:02;40.97;;;15.73;;
73397;SDS011;63606;52.328;20.964;2022-11-15T10:46:46;36.40;;;15.10;;
73397;SDS011;63606;52.328;20.964;2022-11-15T10:49:19;42.95;;;15.70;;
73397;SDS011;63606;52.328;20.964;2022-11-15T10:51:49;42.17;;;15.23;;
73397;SDS011;63606;52.328;20.964;2022-11-15T10:54:33;38.40;;;15.50;;
73397;SDS011;63606;52.328;20.964;2022-11-15T10:56:59;39.20;;;14.15;;
73397;SDS011;63606;52.328;20.964;2022-11-15T10:59:32;40.80;;;16.60;;
73397;SDS011;63606;52.328;20.964;2022-11-15T11:02:00;33.03;;;14.02;;
73397;SDS011;63606;52.328;20.964;2022-11-15T11:04:26;41.47;;;15.32;;
73397;SDS011;63606;52.328;20.964;2022-11-15T11:09:34;44.97;;;16.52;;
73397;SDS011;63606;52.328;20.964;2022-11-15T11:12:02;38.13;;;14.85;;
73397;SDS011;63606;52.328;20.964;2022-11-15T11:14:30;36.85;;;15.00;;
73397;SDS011;63606;52.328;20.964;2022-11-15T11:30:10;40.28;;;15.27;;
73397;SDS011;63606;52.328;20.964;2022-11-15T11:40:49;40.47;;;15.88;;
73397;SDS011;63606;52.328;20.964;2022-11-15T11:45:53;38.25;;;15.15;;
73397;SDS011;63606;52.328;20.964;2022-11-15T11:48:37;37.47;;;14.43;;
73397;SDS011;63606;52.328;20.964;2022-11-15T11:51:21;42.22;;;16.52;;
73397;SDS011;63606;52.328;20.964;2022-11-15T11:53:50;41.55;;;15.20;;
73397;SDS011;63606;52.328;20.964;2022-11-15T11:58:54;42.55;;;15.82;;
73397;SDS011;63606;52.328;20.964;2022-11-15T12:01:33;40.30;;;15.38;;
73397;SDS011;63606;52.328;20.964;2022-11-15T12:04:13;43.42;;;16.25;;
73397;SDS011;63606;52.328;20.964;2022-11-15T12:09:32;43.42;;;16.50;;
73397;SDS011;63606;52.328;20.964;2022-11-15T12:12:20;43.88;;;15.57;;
73397;SDS011;63606;52.328;20.964;2022-11-15T12:15:00;37.70;;;15.38;;
73397;SDS011;63606;52.328;20.964;2022-11-15T12:17:47;41.95;;;15.77;;
73397;SDS011;63606;52.328;20.964;2022-11-15T12:20:20;45.05;;;15.98;;
73397;SDS011;63606;52.328;20.964;2022-11-15T12:22:56;42.55;;;15.45;;
73397;SDS011;63606;52.328;20.964;2022-11-15T12:31:23;35.75;;;14.30;;
73397;SDS011;63606;52.328;20.964;2022-11-15T12:33:56;43.15;;;16.52;;
73397;SDS011;63606;52.328;20.964;2022-11-15T12:38:58;36.97;;;14.23;;
73397;SDS011;63606;52.328;20.964;2022-11-15T12:41:30;39.05;;;14.93;;
73397;SDS011;63606;52.328;20.964;2022-11-15T12:43:57;40.50;;;15.70;;
73397;SDS011;63606;52.328;20.964;2022-11-15T12:48:56;42.40;;;16.63;;
73397;SDS011;63606;52.328;20.964;2022-11-15T12:52:05;39.42;;;15.90;;
73397;SDS011;63606;52.328;20.964;2022-11-15T13:02:36;38.17;;;15.48;;
73397;SDS011;63606;52.328;20.964;2022-11-15T13:17:42;44.50;;;16.98;;
73397;SDS011;63606;52.328;20.964;2022-11-15T13:22:45;45.13;;;17.48;;
73397;SDS011;63606;52.328;20.964;2022-11-15T13:27:48;41.88;;;16.77;;
73397;SDS011;63606;52.328;20.964;2022-11-15T13:30:22;44.15;;;17.13;;
73397;SDS011;63606;52.328;20.964;2022-11-15T13:32:54;43.47;;;16.60;;
73397;SDS011;63606;52.328;20.964;2022-11-15T13:35:21;42.15;;;15.85;;
73397;SDS011;63606;52.328;20.964;2022-11-15T13:37:48;42.38;;;16.58;;
73397;SDS011;63606;52.328;20.964;2022-11-15T13:40:20;45.58;;;17.75;;
73397;SDS011;63606;52.328;20.964;2022-11-15T13:42:53;43.35;;;16.45;;
73397;SDS011;63606;52.328;20.964;2022-11-15T13:45:19;41.03;;;15.98;;
73397;SDS011;63606;52.328;20.964;2022-11-15T13:47:50;41.58;;;16.73;;
73397;SDS011;63606;52.328;20.964;2022-11-15T13:50:16;41.70;;;15.90;;
73397;SDS011;63606;52.328;20.964;2022-11-15T13:52:43;44.10;;;17.80;;
73397;SDS011;63606;52.328;20.964;2022-11-15T13:55:21;42.30;;;17.10;;
73397;SDS011;63606;52.328;20.964;2022-11-15T13:57:50;44.25;;;16.65;;
73397;SDS011;63606;52.328;20.964;2022-11-15T14:08:28;41.28;;;15.88;;
73397;SDS011;63606;52.328;20.964;2022-11-15T14:11:12;41.92;;;15.45;;
73397;SDS011;63606;52.328;20.964;2022-11-15T14:13:39;43.92;;;16.23;;
73397;SDS011;63606;52.328;20.964;2022-11-15T14:16:20;46.92;;;17.52;;
73397;SDS011;63606;52.328;20.964;2022-11-15T14:18:47;50.88;;;18.80;;
73397;SDS011;63606;52.328;20.964;2022-11-15T14:21:17;54.17;;;19.05;;
73397;SDS011;63606;52.328;20.964;2022-11-15T14:23:44;44.72;;;17.13;;
73397;SDS011;63606;52.328;20.964;2022-11-15T14:26:29;40.95;;;16.10;;
73397;SDS011;63606;52.328;20.964;2022-11-15T14:28:56;45.60;;;16.55;;
73397;SDS011;63606;52.328;20.964;2022-11-15T14:31:22;44.00;;;15.48;;
73397;SDS011;63606;52.328;20.964;2022-11-15T14:33:47;42.95;;;17.02;;
73397;SDS011;63606;52.328;20.964;2022-11-15T14:36:17;44.47;;;16.75;;
73397;SDS011;63606;52.328;20.964;2022-11-15T14:38:45;45.42;;;16.77;;
73397;SDS011;63606;52.328;20.964;2022-11-15T14:41:17;46.33;;;17.77;;
73397;SDS011;63606;52.328;20.964;2022-11-15T14:43:47;43.30;;;18.02;;
73397;SDS011;63606;52.328;20.964;2022-11-15T14:46:13;53.78;;;18.20;;
73397;SDS011;63606;52.328;20.964;2022-11-15T14:48:38;50.72;;;19.05;;
73397;SDS011;63606;52.328;20.964;2022-11-15T14:51:09;44.83;;;16.75;;
73397;SDS011;63606;52.328;20.964;2022-11-15T14:53:37;52.13;;;20.17;;
73397;SDS011;63606;52.328;20.964;2022-11-15T14:56:02;49.40;;;19.42;;
73397;SDS011;63606;52.328;20.964;2022-11-15T14:58:28;51.33;;;19.13;;
73397;SDS011;63606;52.328;20.964;2022-11-15T15:00:53;52.47;;;19.88;;
73397;SDS011;63606;52.328;20.964;2022-11-15T15:03:19;43.00;;;17.33;;
73397;SDS011;63606;52.328;20.964;2022-11-15T15:05:44;49.05;;;17.58;;
73397;SDS011;63606;52.328;20.964;2022-11-15T15:08:10;52.15;;;17.92;;
73397;SDS011;63606;52.328;20.964;2022-11-15T15:10:40;43.80;;;17.60;;
73397;SDS011;63606;52.328;20.964;2022-11-15T15:13:21;49.25;;;18.60;;
73397;SDS011;63606;52.328;20.964;2022-11-15T15:15:48;50.70;;;17.02;;
73397;SDS011;63606;52.328;20.964;2022-11-15T15:18:15;46.78;;;17.50;;
73397;SDS011;63606;52.328;20.964;2022-11-15T15:20:42;49.15;;;18.55;;
73397;SDS011;63606;52.328;20.964;2022-11-15T15:23:15;50.20;;;18.20;;
73397;SDS011;63606;52.328;20.964;2022-11-15T15:25:42;51.63;;;18.45;;
73397;SDS011;63606;52.328;20.964;2022-11-15T15:28:08;53.97;;;18.50;;
73397;SDS011;63606;52.328;20.964;2022-11-15T15:30:34;46.45;;;16.40;;
73397;SDS011;63606;52.328;20.964;2022-11-15T15:33:00;41.70;;;14.98;;
73397;SDS011;63606;52.328;20.964;2022-11-15T15:35:28;42.08;;;15.25;;
73397;SDS011;63606;52.328;20.964;2022-11-15T15:37:55;41.80;;;15.05;;
73397;SDS011;63606;52.328;20.964;2022-11-15T15:40:22;48.97;;;17.63;;
73397;SDS011;63606;52.328;20.964;2022-11-15T15:42:48;48.72;;;15.85;;
73397;SDS011;63606;52.328;20.964;2022-11-15T15:45:14;45.97;;;16.88;;
73397;SDS011;63606;52.328;20.964;2022-11-15T15:47:41;47.80;;;15.65;;
73397;SDS011;63606;52.328;20.964;2022-11-15T15:50:26;55.08;;;19.15;;
73397;SDS011;63606;52.328;20.964;2022-11-15T15:55:20;50.03;;;17.27;;
73397;SDS011;63606;52.328;20.964;2022-11-15T15:57:46;52.10;;;17.77;;
73397;SDS011;63606;52.328;20.964;2022-11-15T16:00:13;47.75;;;16.83;;
73397;SDS011;63606;52.328;20.964;2022-11-15T16:02:39;51.33;;;18.00;;
73397;SDS011;63606;52.328;20.964;2022-11-15T16:05:05;57.72;;;17.20;;
73397;SDS011;63606;52.328;20.964;2022-11-15T16:07:31;45.88;;;15.48;;
73397;SDS011;63606;52.328;20.964;2022-11-15T16:09:57;43.85;;;15.55;;
73397;SDS011;63606;52.328;20.964;2022-11-15T16:12:26;44.28;;;15.02;;
73397;SDS011;63606;52.328;20.964;2022-11-15T16:14:52;46.17;;;15.43;;
73397;SDS011;63606;52.328;20.964;2022-11-15T16:17:18;44.38;;;13.85;;
73397;SDS011;63606;52.328;20.964;2022-11-15T16:19:46;43.42;;;15.13;;
73397;SDS011;63606;52.328;20.964;2022-11-15T16:22:12;46.67;;;15.60;;
73397;SDS011;63606;52.328;20.964;2022-11-15T16:24:38;47.53;;;16.27;;
73397;SDS011;63606;52.328;20.964;2022-11-15T16:27:03;43.63;;;15.20;;
73397;SDS011;63606;52.328;20.964;2022-11-15T16:29:29;43.20;;;15.85;;
73397;SDS011;63606;52.328;20.964;2022-11-15T16:31:54;49.45;;;16.17;;
73397;SDS011;63606;52.328;20.964;2022-11-15T16:34:21;40.63;;;14.63;;
73397;SDS011;63606;52.328;20.964;2022-11-15T16:36:47;41.83;;;15.85;;
73397;SDS011;63606;52.328;20.964;2022-11-15T16:39:13;52.60;;;16.17;;
73397;SDS011;63606;52.328;20.964;2022-11-15T16:41:40;45.05;;;16.23;;
73397;SDS011;63606;52.328;20.964;2022-11-15T16:44:08;51.45;;;15.27;;
73397;SDS011;63606;52.328;20.964;2022-11-15T16:46:33;46.90;;;14.68;;
73397;SDS011;63606;52.328;20.964;2022-11-15T16:48:59;47.20;;;16.23;;
73397;SDS011;63606;52.328;20.964;2022-11-15T16:51:25;40.72;;;13.90;;
73397;SDS011;63606;52.328;20.964;2022-11-15T16:53:51;45.45;;;16.05;;
73397;SDS011;63606;52.328;20.964;2022-11-15T16:56:21;45.70;;;16.45;;
73397;SDS011;63606;52.328;20.964;2022-11-15T16:58:50;56.00;;;17.52;;